sensor_id;sensor_type;location;lat;lon;timestamp;temperature;humidity
7588;DHT22;3835;48.850;8.938;2024-03-02T00:01:26;5.70;99.90
7588;DHT22;3835;48.850;8.938;2024-03-02T00:03:52;5.70;99.90
7588;DHT22;3835;48.850;8.938;2024-03-02T00:06:20;5.70;99.90
7588;DHT22;3835;48.850;8.938;2024-03-02T00:08:47;5.60;99.90
7588;DHT22;3835;48.850;8.938;2024-03-02T00:11:14;5.60;99.90
7588;DHT22;3835;48.850;8.938;2024-03-02T00:13:41;5.70;99.90
7588;DHT22;3835;48.850;8.938;2024-03-02T00:16:08;5.60;99.90
7588;DHT22;3835;48.850;8.938;2024-03-02T00:18:38;5.90;99.90
7588;DHT22;3835;48.850;8.938;2024-03-02T00:21:06;5.70;99.90
7588;DHT22;3835;48.850;8.938;2024-03-02T00:23:35;5.80;99.90
7588;DHT22;3835;48.850;8.938;2024-03-02T00:26:02;5.70;99.90
7588;DHT22;3835;48.850;8.938;2024-03-02T00:28:31;5.70;99.90
7588;DHT22;3835;48.850;8.938;2024-03-02T00:31:01;5.60;99.90
7588;DHT22;3835;48.850;8.938;2024-03-02T00:33:31;5.60;99.90
7588;DHT22;3835;48.850;8.938;2024-03-02T00:36:01;5.60;99.90
7588;DHT22;3835;48.850;8.938;2024-03-02T00:38:29;5.60;99.90
7588;DHT22;3835;48.850;8.938;2024-03-02T00:40:57;5.60;99.90
7588;DHT22;3835;48.850;8.938;2024-03-02T00:43:41;5.60;99.90
7588;DHT22;3835;48.850;8.938;2024-03-02T00:46:10;5.60;99.90
7588;DHT22;3835;48.850;8.938;2024-03-02T00:48:38;6.10;99.90
7588;DHT22;3835;48.850;8.938;2024-03-02T00:51:06;5.50;99.90
7588;DHT22;3835;48.850;8.938;2024-03-02T00:53:34;5.70;99.90
7588;DHT22;3835;48.850;8.938;2024-03-02T00:56:02;5.50;99.90
7588;DHT22;3835;48.850;8.938;2024-03-02T00:58:28;5.50;99.90
7588;DHT22;3835;48.850;8.938;2024-03-02T01:00:55;5.40;99.90
7588;DHT22;3835;48.850;8.938;2024-03-02T01:03:22;5.40;99.90
7588;DHT22;3835;48.850;8.938;2024-03-02T01:05:49;5.30;99.90
7588;DHT22;3835;48.850;8.938;2024-03-02T01:08:18;5.20;99.90
7588;DHT22;3835;48.850;8.938;2024-03-02T01:10:44;5.10;99.90
7588;DHT22;3835;48.850;8.938;2024-03-02T01:13:11;5.10;99.90
7588;DHT22;3835;48.850;8.938;2024-03-02T01:15:38;5.00;99.90
7588;DHT22;3835;48.850;8.938;2024-03-02T01:18:05;4.90;99.90
7588;DHT22;3835;48.850;8.938;2024-03-02T01:20:32;5.40;99.90
7588;DHT22;3835;48.850;8.938;2024-03-02T01:22:59;4.70;99.90
7588;DHT22;3835;48.850;8.938;2024-03-02T01:25:27;4.70;99.90
7588;DHT22;3835;48.850;8.938;2024-03-02T01:27:54;4.50;99.90
7588;DHT22;3835;48.850;8.938;2024-03-02T01:30:21;5.10;99.90
7588;DHT22;3835;48.850;8.938;2024-03-02T01:32:48;4.50;99.90
7588;DHT22;3835;48.850;8.938;2024-03-02T01:35:14;4.50;99.90
7588;DHT22;3835;48.850;8.938;2024-03-02T01:37:41;4.50;99.90
7588;DHT22;3835;48.850;8.938;2024-03-02T01:40:09;4.40;99.90
7588;DHT22;3835;48.850;8.938;2024-03-02T01:42:38;4.40;99.90
7588;DHT22;3835;48.850;8.938;2024-03-02T01:45:06;4.40;99.90
7588;DHT22;3835;48.850;8.938;2024-03-02T01:47:34;4.50;99.90
7588;DHT22;3835;48.850;8.938;2024-03-02T01:50:01;4.70;99.90
7588;DHT22;3835;48.850;8.938;2024-03-02T01:52:28;4.50;99.90
7588;DHT22;3835;48.850;8.938;2024-03-02T01:54:55;4.80;99.90
7588;DHT22;3835;48.850;8.938;2024-03-02T01:57:22;4.70;99.90
7588;DHT22;3835;48.850;8.938;2024-03-02T01:59:50;4.40;99.90
7588;DHT22;3835;48.850;8.938;2024-03-02T02:02:18;4.20;99.90
7588;DHT22;3835;48.850;8.938;2024-03-02T02:04:45;4.30;99.90
7588;DHT22;3835;48.850;8.938;2024-03-02T02:07:12;4.30;99.90
7588;DHT22;3835;48.850;8.938;2024-03-02T02:09:40;4.10;99.90
7588;DHT22;3835;48.850;8.938;2024-03-02T02:12:07;4.20;99.90
7588;DHT22;3835;48.850;8.938;2024-03-02T02:14:34;4.20;99.90
7588;DHT22;3835;48.850;8.938;2024-03-02T02:17:03;4.30;99.90
7588;DHT22;3835;48.850;8.938;2024-03-02T02:19:30;4.20;99.90
7588;DHT22;3835;48.850;8.938;2024-03-02T02:21:58;4.20;99.90
7588;DHT22;3835;48.850;8.938;2024-03-02T02:24:25;4.20;99.90
7588;DHT22;3835;48.850;8.938;2024-03-02T02:26:52;4.20;99.90
7588;DHT22;3835;48.850;8.938;2024-03-02T02:29:18;4.20;99.90
7588;DHT22;3835;48.850;8.938;2024-03-02T02:31:45;4.30;99.90
7588;DHT22;3835;48.850;8.938;2024-03-02T02:34:14;4.40;99.90
7588;DHT22;3835;48.850;8.938;2024-03-02T02:36:41;4.30;99.90
7588;DHT22;3835;48.850;8.938;2024-03-02T02:39:14;4.30;99.90
7588;DHT22;3835;48.850;8.938;2024-03-02T02:41:42;4.30;99.90
7588;DHT22;3835;48.850;8.938;2024-03-02T02:44:09;4.30;99.90
7588;DHT22;3835;48.850;8.938;2024-03-02T02:46:38;4.20;99.90
7588;DHT22;3835;48.850;8.938;2024-03-02T02:49:05;4.80;99.90
7588;DHT22;3835;48.850;8.938;2024-03-02T02:51:32;4.40;99.90
7588;DHT22;3835;48.850;8.938;2024-03-02T02:53:58;4.30;99.90
7588;DHT22;3835;48.850;8.938;2024-03-02T02:56:27;4.10;99.90
7588;DHT22;3835;48.850;8.938;2024-03-02T02:58:53;4.10;99.90
7588;DHT22;3835;48.850;8.938;2024-03-02T03:01:20;4.10;99.90
7588;DHT22;3835;48.850;8.938;2024-03-02T03:03:47;4.10;99.90
7588;DHT22;3835;48.850;8.938;2024-03-02T03:06:14;4.10;99.90
7588;DHT22;3835;48.850;8.938;2024-03-02T03:08:41;4.30;99.90
7588;DHT22;3835;48.850;8.938;2024-03-02T03:11:07;4.10;99.90
7588;DHT22;3835;48.850;8.938;2024-03-02T03:13:36;4.10;99.90
7588;DHT22;3835;48.850;8.938;2024-03-02T03:16:03;4.10;99.90
7588;DHT22;3835;48.850;8.938;2024-03-02T03:18:31;4.00;99.90
7588;DHT22;3835;48.850;8.938;2024-03-02T03:20:58;4.20;99.90
7588;DHT22;3835;48.850;8.938;2024-03-02T03:23:24;4.50;99.90
7588;DHT22;3835;48.850;8.938;2024-03-02T03:25:51;4.00;99.90
7588;DHT22;3835;48.850;8.938;2024-03-02T03:28:18;4.50;99.90
7588;DHT22;3835;48.850;8.938;2024-03-02T03:30:47;4.00;99.90
7588;DHT22;3835;48.850;8.938;2024-03-02T03:33:13;4.00;99.90
7588;DHT22;3835;48.850;8.938;2024-03-02T03:35:40;4.50;99.90
7588;DHT22;3835;48.850;8.938;2024-03-02T03:38:07;4.00;99.90
7588;DHT22;3835;48.850;8.938;2024-03-02T03:40:34;4.00;99.90
7588;DHT22;3835;48.850;8.938;2024-03-02T03:43:01;4.20;99.90
7588;DHT22;3835;48.850;8.938;2024-03-02T03:45:28;4.10;99.90
7588;DHT22;3835;48.850;8.938;2024-03-02T03:47:57;4.00;99.90
7588;DHT22;3835;48.850;8.938;2024-03-02T03:50:24;4.10;99.90
7588;DHT22;3835;48.850;8.938;2024-03-02T03:52:51;3.90;99.90
7588;DHT22;3835;48.850;8.938;2024-03-02T03:55:18;4.00;99.90
7588;DHT22;3835;48.850;8.938;2024-03-02T03:57:45;3.80;99.90
7588;DHT22;3835;48.850;8.938;2024-03-02T04:00:12;4.30;99.90
7588;DHT22;3835;48.850;8.938;2024-03-02T04:02:39;3.90;99.90
7588;DHT22;3835;48.850;8.938;2024-03-02T04:05:08;3.90;99.90
7588;DHT22;3835;48.850;8.938;2024-03-02T04:07:36;3.90;99.90
7588;DHT22;3835;48.850;8.938;2024-03-02T04:10:07;4.00;99.90
7588;DHT22;3835;48.850;8.938;2024-03-02T04:12:35;4.00;99.90
7588;DHT22;3835;48.850;8.938;2024-03-02T04:15:04;4.00;99.90
7588;DHT22;3835;48.850;8.938;2024-03-02T04:17:32;4.00;99.90
7588;DHT22;3835;48.850;8.938;2024-03-02T04:20:01;4.00;99.90
7588;DHT22;3835;48.850;8.938;2024-03-02T04:22:33;4.00;99.90
7588;DHT22;3835;48.850;8.938;2024-03-02T04:25:01;3.90;99.90
7588;DHT22;3835;48.850;8.938;2024-03-02T04:27:30;3.90;99.90
7588;DHT22;3835;48.850;8.938;2024-03-02T04:29:57;4.00;99.90
7588;DHT22;3835;48.850;8.938;2024-03-02T04:32:24;3.90;99.90
7588;DHT22;3835;48.850;8.938;2024-03-02T04:34:50;4.00;99.90
7588;DHT22;3835;48.850;8.938;2024-03-02T04:37:17;3.90;99.90
7588;DHT22;3835;48.850;8.938;2024-03-02T04:39:46;4.00;99.90
7588;DHT22;3835;48.850;8.938;2024-03-02T04:42:12;3.90;99.90
7588;DHT22;3835;48.850;8.938;2024-03-02T04:44:39;4.70;99.90
7588;DHT22;3835;48.850;8.938;2024-03-02T04:47:06;3.70;99.90
7588;DHT22;3835;48.850;8.938;2024-03-02T04:49:33;4.00;99.90
7588;DHT22;3835;48.850;8.938;2024-03-02T04:52:00;3.80;99.90
7588;DHT22;3835;48.850;8.938;2024-03-02T04:54:27;3.70;99.90
7588;DHT22;3835;48.850;8.938;2024-03-02T04:56:55;3.80;99.90
7588;DHT22;3835;48.850;8.938;2024-03-02T04:59:22;3.90;99.90
7588;DHT22;3835;48.850;8.938;2024-03-02T05:01:49;3.70;99.90
7588;DHT22;3835;48.850;8.938;2024-03-02T05:04:15;3.70;99.90
7588;DHT22;3835;48.850;8.938;2024-03-02T05:06:42;3.90;99.90
7588;DHT22;3835;48.850;8.938;2024-03-02T05:09:09;3.70;99.90
7588;DHT22;3835;48.850;8.938;2024-03-02T05:11:36;3.60;99.90
7588;DHT22;3835;48.850;8.938;2024-03-02T05:14:26;3.60;99.90
7588;DHT22;3835;48.850;8.938;2024-03-02T05:16:52;3.70;99.90
7588;DHT22;3835;48.850;8.938;2024-03-02T05:19:19;3.70;99.90
7588;DHT22;3835;48.850;8.938;2024-03-02T05:21:46;3.80;99.90
7588;DHT22;3835;48.850;8.938;2024-03-02T05:24:14;3.70;99.90
7588;DHT22;3835;48.850;8.938;2024-03-02T05:26:41;3.90;99.90
7588;DHT22;3835;48.850;8.938;2024-03-02T05:29:07;3.90;99.90
7588;DHT22;3835;48.850;8.938;2024-03-02T05:31:36;4.00;99.90
7588;DHT22;3835;48.850;8.938;2024-03-02T05:34:02;4.10;99.90
7588;DHT22;3835;48.850;8.938;2024-03-02T05:36:31;4.20;99.90
7588;DHT22;3835;48.850;8.938;2024-03-02T05:38:58;4.30;99.90
7588;DHT22;3835;48.850;8.938;2024-03-02T05:41:25;4.20;99.90
7588;DHT22;3835;48.850;8.938;2024-03-02T05:43:52;4.10;99.90
7588;DHT22;3835;48.850;8.938;2024-03-02T05:46:19;4.20;99.90
7588;DHT22;3835;48.850;8.938;2024-03-02T05:48:47;4.10;99.90
7588;DHT22;3835;48.850;8.938;2024-03-02T05:51:14;4.10;99.90
7588;DHT22;3835;48.850;8.938;2024-03-02T05:53:40;4.20;99.90
7588;DHT22;3835;48.850;8.938;2024-03-02T05:56:08;4.00;99.90
7588;DHT22;3835;48.850;8.938;2024-03-02T05:58:35;4.30;99.90
7588;DHT22;3835;48.850;8.938;2024-03-02T06:01:15;3.90;99.90
7588;DHT22;3835;48.850;8.938;2024-03-02T06:03:43;3.90;99.90
7588;DHT22;3835;48.850;8.938;2024-03-02T06:06:11;3.90;99.90
7588;DHT22;3835;48.850;8.938;2024-03-02T06:08:38;4.00;99.90
7588;DHT22;3835;48.850;8.938;2024-03-02T06:11:05;4.00;99.90
7588;DHT22;3835;48.850;8.938;2024-03-02T06:13:32;4.20;99.90
7588;DHT22;3835;48.850;8.938;2024-03-02T06:15:59;4.10;99.90
7588;DHT22;3835;48.850;8.938;2024-03-02T06:18:25;4.20;99.90
7588;DHT22;3835;48.850;8.938;2024-03-02T06:20:53;4.20;99.90
7588;DHT22;3835;48.850;8.938;2024-03-02T06:23:21;4.20;99.90
7588;DHT22;3835;48.850;8.938;2024-03-02T06:25:48;4.20;99.90
7588;DHT22;3835;48.850;8.938;2024-03-02T06:28:15;4.50;99.90
7588;DHT22;3835;48.850;8.938;2024-03-02T06:30:42;4.30;99.90
7588;DHT22;3835;48.850;8.938;2024-03-02T06:33:09;4.40;99.90
7588;DHT22;3835;48.850;8.938;2024-03-02T06:35:35;4.40;99.90
7588;DHT22;3835;48.850;8.938;2024-03-02T06:38:02;4.50;99.90
7588;DHT22;3835;48.850;8.938;2024-03-02T06:40:31;4.50;99.90
7588;DHT22;3835;48.850;8.938;2024-03-02T06:42:58;4.60;99.90
7588;DHT22;3835;48.850;8.938;2024-03-02T06:45:24;4.60;99.90
7588;DHT22;3835;48.850;8.938;2024-03-02T06:47:52;4.80;99.90
7588;DHT22;3835;48.850;8.938;2024-03-02T06:50:19;4.80;99.90
7588;DHT22;3835;48.850;8.938;2024-03-02T06:52:46;4.80;99.90
7588;DHT22;3835;48.850;8.938;2024-03-02T06:55:13;4.80;99.90
7588;DHT22;3835;48.850;8.938;2024-03-02T06:57:41;4.90;99.90
7588;DHT22;3835;48.850;8.938;2024-03-02T07:00:08;4.80;99.90
7588;DHT22;3835;48.850;8.938;2024-03-02T07:02:35;5.00;99.90
7588;DHT22;3835;48.850;8.938;2024-03-02T07:05:02;5.00;99.90
7588;DHT22;3835;48.850;8.938;2024-03-02T07:07:29;5.10;99.90
7588;DHT22;3835;48.850;8.938;2024-03-02T07:09:57;5.40;99.90
7588;DHT22;3835;48.850;8.938;2024-03-02T07:12:24;5.50;99.90
7588;DHT22;3835;48.850;8.938;2024-03-02T07:14:52;5.60;99.90
7588;DHT22;3835;48.850;8.938;2024-03-02T07:17:36;5.50;99.90
7588;DHT22;3835;48.850;8.938;2024-03-02T07:20:04;5.50;99.90
7588;DHT22;3835;48.850;8.938;2024-03-02T07:22:32;5.40;99.90
7588;DHT22;3835;48.850;8.938;2024-03-02T07:24:59;5.40;99.90
7588;DHT22;3835;48.850;8.938;2024-03-02T07:27:26;5.50;99.90
7588;DHT22;3835;48.850;8.938;2024-03-02T07:29:54;5.40;99.90
7588;DHT22;3835;48.850;8.938;2024-03-02T07:32:21;5.50;99.90
7588;DHT22;3835;48.850;8.938;2024-03-02T07:34:48;5.40;99.90
7588;DHT22;3835;48.850;8.938;2024-03-02T07:37:16;5.40;99.90
7588;DHT22;3835;48.850;8.938;2024-03-02T07:39:44;5.40;99.90
7588;DHT22;3835;48.850;8.938;2024-03-02T07:42:11;5.20;99.90
7588;DHT22;3835;48.850;8.938;2024-03-02T07:44:38;5.40;99.90
7588;DHT22;3835;48.850;8.938;2024-03-02T07:47:07;5.40;99.90
7588;DHT22;3835;48.850;8.938;2024-03-02T07:49:34;5.30;99.90
7588;DHT22;3835;48.850;8.938;2024-03-02T07:52:01;5.30;99.90
7588;DHT22;3835;48.850;8.938;2024-03-02T07:54:28;5.30;99.90
7588;DHT22;3835;48.850;8.938;2024-03-02T07:56:55;5.40;99.90
7588;DHT22;3835;48.850;8.938;2024-03-02T07:59:22;5.50;99.90
7588;DHT22;3835;48.850;8.938;2024-03-02T08:01:49;5.40;99.90
7588;DHT22;3835;48.850;8.938;2024-03-02T08:04:18;5.50;99.90
7588;DHT22;3835;48.850;8.938;2024-03-02T08:06:45;5.60;99.90
7588;DHT22;3835;48.850;8.938;2024-03-02T08:09:12;5.80;99.90
7588;DHT22;3835;48.850;8.938;2024-03-02T08:11:39;5.80;99.90
7588;DHT22;3835;48.850;8.938;2024-03-02T08:14:06;6.00;99.90
7588;DHT22;3835;48.850;8.938;2024-03-02T08:16:33;6.30;99.90
7588;DHT22;3835;48.850;8.938;2024-03-02T08:19:00;6.60;99.90
7588;DHT22;3835;48.850;8.938;2024-03-02T08:21:28;6.80;99.90
7588;DHT22;3835;48.850;8.938;2024-03-02T08:23:56;7.00;99.90
7588;DHT22;3835;48.850;8.938;2024-03-02T08:26:23;7.20;99.90
7588;DHT22;3835;48.850;8.938;2024-03-02T08:28:50;7.40;99.90
7588;DHT22;3835;48.850;8.938;2024-03-02T08:31:17;7.50;99.90
7588;DHT22;3835;48.850;8.938;2024-03-02T08:33:44;7.70;99.90
7588;DHT22;3835;48.850;8.938;2024-03-02T08:36:11;7.90;99.90
7588;DHT22;3835;48.850;8.938;2024-03-02T08:38:39;8.10;99.90
7588;DHT22;3835;48.850;8.938;2024-03-02T08:41:07;8.40;99.90
7588;DHT22;3835;48.850;8.938;2024-03-02T08:43:34;8.30;99.90
7588;DHT22;3835;48.850;8.938;2024-03-02T08:46:01;8.40;99.90
7588;DHT22;3835;48.850;8.938;2024-03-02T08:48:28;8.40;99.90
7588;DHT22;3835;48.850;8.938;2024-03-02T08:50:54;8.40;99.90
7588;DHT22;3835;48.850;8.938;2024-03-02T08:53:21;8.50;99.90
7588;DHT22;3835;48.850;8.938;2024-03-02T08:55:50;8.60;99.90
7588;DHT22;3835;48.850;8.938;2024-03-02T08:58:16;8.80;99.90
7588;DHT22;3835;48.850;8.938;2024-03-02T09:00:43;8.90;99.90
7588;DHT22;3835;48.850;8.938;2024-03-02T09:03:10;8.90;99.90
7588;DHT22;3835;48.850;8.938;2024-03-02T09:05:37;9.10;99.90
7588;DHT22;3835;48.850;8.938;2024-03-02T09:08:05;9.20;99.90
7588;DHT22;3835;48.850;8.938;2024-03-02T09:10:32;9.20;99.90
7588;DHT22;3835;48.850;8.938;2024-03-02T09:13:00;9.30;99.90
7588;DHT22;3835;48.850;8.938;2024-03-02T09:15:28;9.50;99.90
7588;DHT22;3835;48.850;8.938;2024-03-02T09:17:54;9.50;99.90
7588;DHT22;3835;48.850;8.938;2024-03-02T09:20:22;9.60;99.90
7588;DHT22;3835;48.850;8.938;2024-03-02T09:22:48;9.70;99.90
7588;DHT22;3835;48.850;8.938;2024-03-02T09:25:15;9.80;99.90
7588;DHT22;3835;48.850;8.938;2024-03-02T09:27:42;9.90;99.90
7588;DHT22;3835;48.850;8.938;2024-03-02T09:30:11;9.90;99.90
7588;DHT22;3835;48.850;8.938;2024-03-02T09:32:39;10.10;99.90
7588;DHT22;3835;48.850;8.938;2024-03-02T09:35:06;10.20;99.90
7588;DHT22;3835;48.850;8.938;2024-03-02T09:37:34;10.40;99.90
7588;DHT22;3835;48.850;8.938;2024-03-02T09:40:01;10.30;99.90
7588;DHT22;3835;48.850;8.938;2024-03-02T09:42:28;10.70;99.90
7588;DHT22;3835;48.850;8.938;2024-03-02T09:44:56;10.50;99.90
7588;DHT22;3835;48.850;8.938;2024-03-02T09:47:24;11.00;99.90
7588;DHT22;3835;48.850;8.938;2024-03-02T09:49:51;10.70;99.90
7588;DHT22;3835;48.850;8.938;2024-03-02T09:52:19;10.80;99.90
7588;DHT22;3835;48.850;8.938;2024-03-02T09:54:47;10.80;99.90
7588;DHT22;3835;48.850;8.938;2024-03-02T09:57:14;10.50;99.90
7588;DHT22;3835;48.850;8.938;2024-03-02T09:59:41;11.00;99.90
7588;DHT22;3835;48.850;8.938;2024-03-02T10:02:08;11.20;99.90
7588;DHT22;3835;48.850;8.938;2024-03-02T10:04:36;11.10;99.90
7588;DHT22;3835;48.850;8.938;2024-03-02T10:07:11;10.90;99.90
7588;DHT22;3835;48.850;8.938;2024-03-02T10:09:38;10.90;99.90
7588;DHT22;3835;48.850;8.938;2024-03-02T10:12:07;10.90;99.90
7588;DHT22;3835;48.850;8.938;2024-03-02T10:14:34;11.00;99.90
7588;DHT22;3835;48.850;8.938;2024-03-02T10:17:04;11.00;99.90
7588;DHT22;3835;48.850;8.938;2024-03-02T10:19:32;10.90;99.90
7588;DHT22;3835;48.850;8.938;2024-03-02T10:22:02;10.90;99.90
7588;DHT22;3835;48.850;8.938;2024-03-02T10:24:36;10.70;99.90
7588;DHT22;3835;48.850;8.938;2024-03-02T10:27:07;10.90;99.90
7588;DHT22;3835;48.850;8.938;2024-03-02T10:29:39;10.90;99.90
7588;DHT22;3835;48.850;8.938;2024-03-02T10:32:09;11.30;99.90
7588;DHT22;3835;48.850;8.938;2024-03-02T10:34:36;11.30;99.90
7588;DHT22;3835;48.850;8.938;2024-03-02T10:37:05;11.00;99.90
7588;DHT22;3835;48.850;8.938;2024-03-02T10:39:34;10.90;99.90
7588;DHT22;3835;48.850;8.938;2024-03-02T10:42:03;11.20;99.90
7588;DHT22;3835;48.850;8.938;2024-03-02T10:44:30;11.30;99.90
7588;DHT22;3835;48.850;8.938;2024-03-02T10:47:00;11.40;99.90
7588;DHT22;3835;48.850;8.938;2024-03-02T10:49:29;11.50;99.90
7588;DHT22;3835;48.850;8.938;2024-03-02T10:51:57;11.60;99.90
7588;DHT22;3835;48.850;8.938;2024-03-02T10:54:26;11.80;99.90
7588;DHT22;3835;48.850;8.938;2024-03-02T10:56:59;11.70;99.90
7588;DHT22;3835;48.850;8.938;2024-03-02T10:59:28;11.80;99.90
7588;DHT22;3835;48.850;8.938;2024-03-02T11:01:57;11.90;99.90
7588;DHT22;3835;48.850;8.938;2024-03-02T11:04:25;12.00;99.90
7588;DHT22;3835;48.850;8.938;2024-03-02T11:06:56;12.20;99.90
7588;DHT22;3835;48.850;8.938;2024-03-02T11:09:28;12.20;99.90
7588;DHT22;3835;48.850;8.938;2024-03-02T11:12:02;12.30;99.90
7588;DHT22;3835;48.850;8.938;2024-03-02T11:14:31;12.30;99.90
7588;DHT22;3835;48.850;8.938;2024-03-02T11:17:00;12.60;99.90
7588;DHT22;3835;48.850;8.938;2024-03-02T11:19:30;12.60;99.90
7588;DHT22;3835;48.850;8.938;2024-03-02T11:21:58;12.60;99.90
7588;DHT22;3835;48.850;8.938;2024-03-02T11:24:31;12.80;99.90
7588;DHT22;3835;48.850;8.938;2024-03-02T11:27:01;12.90;99.90
7588;DHT22;3835;48.850;8.938;2024-03-02T11:29:43;13.10;99.90
7588;DHT22;3835;48.850;8.938;2024-03-02T11:32:18;13.20;99.90
7588;DHT22;3835;48.850;8.938;2024-03-02T11:34:48;13.00;99.90
7588;DHT22;3835;48.850;8.938;2024-03-02T11:37:15;13.00;99.90
7588;DHT22;3835;48.850;8.938;2024-03-02T11:39:45;12.90;99.90
7588;DHT22;3835;48.850;8.938;2024-03-02T11:42:13;12.90;99.90
7588;DHT22;3835;48.850;8.938;2024-03-02T11:44:42;12.90;99.90
7588;DHT22;3835;48.850;8.938;2024-03-02T11:47:11;12.80;99.90
7588;DHT22;3835;48.850;8.938;2024-03-02T11:49:40;12.80;99.90
7588;DHT22;3835;48.850;8.938;2024-03-02T11:52:10;12.80;99.90
7588;DHT22;3835;48.850;8.938;2024-03-02T11:54:37;12.70;99.90
7588;DHT22;3835;48.850;8.938;2024-03-02T11:57:07;12.90;99.90
7588;DHT22;3835;48.850;8.938;2024-03-02T11:59:34;13.00;99.90
7588;DHT22;3835;48.850;8.938;2024-03-02T12:02:01;13.10;99.90
7588;DHT22;3835;48.850;8.938;2024-03-02T12:04:29;13.30;99.90
7588;DHT22;3835;48.850;8.938;2024-03-02T12:06:59;13.30;99.90
7588;DHT22;3835;48.850;8.938;2024-03-02T12:09:29;13.20;99.90
7588;DHT22;3835;48.850;8.938;2024-03-02T12:12:03;13.20;99.90
7588;DHT22;3835;48.850;8.938;2024-03-02T12:14:33;13.30;99.90
7588;DHT22;3835;48.850;8.938;2024-03-02T12:17:01;13.40;99.90
7588;DHT22;3835;48.850;8.938;2024-03-02T12:19:28;13.50;99.90
7588;DHT22;3835;48.850;8.938;2024-03-02T12:21:56;13.50;99.90
7588;DHT22;3835;48.850;8.938;2024-03-02T12:24:23;13.70;99.90
7588;DHT22;3835;48.850;8.938;2024-03-02T12:26:51;13.70;99.90
7588;DHT22;3835;48.850;8.938;2024-03-02T12:29:19;13.80;99.90
7588;DHT22;3835;48.850;8.938;2024-03-02T12:31:49;13.60;99.90
7588;DHT22;3835;48.850;8.938;2024-03-02T12:34:17;13.60;99.90
7588;DHT22;3835;48.850;8.938;2024-03-02T12:36:46;13.40;99.90
7588;DHT22;3835;48.850;8.938;2024-03-02T12:39:15;13.30;99.90
7588;DHT22;3835;48.850;8.938;2024-03-02T12:41:42;13.40;99.90
7588;DHT22;3835;48.850;8.938;2024-03-02T12:44:09;13.40;99.90
7588;DHT22;3835;48.850;8.938;2024-03-02T12:46:36;13.40;99.90
7588;DHT22;3835;48.850;8.938;2024-03-02T12:49:10;13.40;99.90
7588;DHT22;3835;48.850;8.938;2024-03-02T12:51:38;13.40;99.90
7588;DHT22;3835;48.850;8.938;2024-03-02T12:54:06;13.40;99.90
7588;DHT22;3835;48.850;8.938;2024-03-02T12:56:33;13.40;99.90
7588;DHT22;3835;48.850;8.938;2024-03-02T12:59:00;13.50;99.90
7588;DHT22;3835;48.850;8.938;2024-03-02T13:01:27;13.60;99.90
7588;DHT22;3835;48.850;8.938;2024-03-02T13:03:54;13.60;99.90
7588;DHT22;3835;48.850;8.938;2024-03-02T13:06:24;13.60;99.90
7588;DHT22;3835;48.850;8.938;2024-03-02T13:08:53;13.60;99.90
7588;DHT22;3835;48.850;8.938;2024-03-02T13:11:21;13.40;99.90
7588;DHT22;3835;48.850;8.938;2024-03-02T13:13:49;13.40;99.90
7588;DHT22;3835;48.850;8.938;2024-03-02T13:16:16;13.30;99.90
7588;DHT22;3835;48.850;8.938;2024-03-02T13:18:45;13.40;99.90
7588;DHT22;3835;48.850;8.938;2024-03-02T13:21:11;13.40;99.90
7588;DHT22;3835;48.850;8.938;2024-03-02T13:23:40;13.40;99.90
7588;DHT22;3835;48.850;8.938;2024-03-02T13:26:06;13.40;99.90
7588;DHT22;3835;48.850;8.938;2024-03-02T13:28:36;13.40;99.90
7588;DHT22;3835;48.850;8.938;2024-03-02T13:31:03;13.50;99.90
7588;DHT22;3835;48.850;8.938;2024-03-02T13:33:30;13.50;99.90
7588;DHT22;3835;48.850;8.938;2024-03-02T13:35:58;13.40;99.90
7588;DHT22;3835;48.850;8.938;2024-03-02T13:38:25;13.40;99.90
7588;DHT22;3835;48.850;8.938;2024-03-02T13:40:53;13.30;99.90
7588;DHT22;3835;48.850;8.938;2024-03-02T13:43:20;13.10;99.90
7588;DHT22;3835;48.850;8.938;2024-03-02T13:45:49;12.80;99.90
7588;DHT22;3835;48.850;8.938;2024-03-02T13:48:17;12.90;99.90
7588;DHT22;3835;48.850;8.938;2024-03-02T13:50:44;12.80;99.90
7588;DHT22;3835;48.850;8.938;2024-03-02T13:53:11;12.80;99.90
7588;DHT22;3835;48.850;8.938;2024-03-02T13:55:38;12.90;99.90
7588;DHT22;3835;48.850;8.938;2024-03-02T13:58:09;12.90;99.90
7588;DHT22;3835;48.850;8.938;2024-03-02T14:00:36;12.80;99.90
7588;DHT22;3835;48.850;8.938;2024-03-02T14:03:04;12.80;99.90
7588;DHT22;3835;48.850;8.938;2024-03-02T14:05:31;12.90;99.90
7588;DHT22;3835;48.850;8.938;2024-03-02T14:07:58;12.90;99.90
7588;DHT22;3835;48.850;8.938;2024-03-02T14:10:26;12.90;99.90
7588;DHT22;3835;48.850;8.938;2024-03-02T14:12:53;12.70;99.90
7588;DHT22;3835;48.850;8.938;2024-03-02T14:15:22;12.80;99.90
7588;DHT22;3835;48.850;8.938;2024-03-02T14:17:49;12.90;99.90
7588;DHT22;3835;48.850;8.938;2024-03-02T14:20:16;13.00;99.90
7588;DHT22;3835;48.850;8.938;2024-03-02T14:22:47;13.20;99.90
7588;DHT22;3835;48.850;8.938;2024-03-02T14:25:14;13.30;99.90
7588;DHT22;3835;48.850;8.938;2024-03-02T14:27:42;13.40;99.90
7588;DHT22;3835;48.850;8.938;2024-03-02T14:30:09;13.50;99.90
7588;DHT22;3835;48.850;8.938;2024-03-02T14:32:38;13.60;99.90
7588;DHT22;3835;48.850;8.938;2024-03-02T14:35:05;13.60;99.90
7588;DHT22;3835;48.850;8.938;2024-03-02T14:37:35;13.70;99.90
7588;DHT22;3835;48.850;8.938;2024-03-02T14:40:02;13.80;99.90
7588;DHT22;3835;48.850;8.938;2024-03-02T14:42:32;13.60;99.90
7588;DHT22;3835;48.850;8.938;2024-03-02T14:44:59;13.60;99.90
7588;DHT22;3835;48.850;8.938;2024-03-02T14:47:28;13.60;99.90
7588;DHT22;3835;48.850;8.938;2024-03-02T14:49:56;13.50;99.90
7588;DHT22;3835;48.850;8.938;2024-03-02T14:52:23;13.60;99.90
7588;DHT22;3835;48.850;8.938;2024-03-02T14:54:50;13.50;99.90
7588;DHT22;3835;48.850;8.938;2024-03-02T14:57:17;13.40;99.90
7588;DHT22;3835;48.850;8.938;2024-03-02T14:59:44;13.50;99.90
7588;DHT22;3835;48.850;8.938;2024-03-02T15:02:11;13.50;99.90
7588;DHT22;3835;48.850;8.938;2024-03-02T15:04:38;13.30;99.90
7588;DHT22;3835;48.850;8.938;2024-03-02T15:07:06;13.20;99.90
7588;DHT22;3835;48.850;8.938;2024-03-02T15:09:33;13.20;99.90
7588;DHT22;3835;48.850;8.938;2024-03-02T15:12:01;12.90;99.90
7588;DHT22;3835;48.850;8.938;2024-03-02T15:14:28;12.90;99.90
7588;DHT22;3835;48.850;8.938;2024-03-02T15:16:55;12.90;99.90
7588;DHT22;3835;48.850;8.938;2024-03-02T15:19:22;12.80;99.90
7588;DHT22;3835;48.850;8.938;2024-03-02T15:21:49;12.60;99.90
7588;DHT22;3835;48.850;8.938;2024-03-02T15:24:17;12.40;99.90
7588;DHT22;3835;48.850;8.938;2024-03-02T15:26:44;12.80;99.90
7588;DHT22;3835;48.850;8.938;2024-03-02T15:29:11;12.40;99.90
7588;DHT22;3835;48.850;8.938;2024-03-02T15:31:38;12.50;99.90
7588;DHT22;3835;48.850;8.938;2024-03-02T15:34:05;12.40;99.90
7588;DHT22;3835;48.850;8.938;2024-03-02T15:36:33;12.50;99.90
7588;DHT22;3835;48.850;8.938;2024-03-02T15:39:01;12.50;99.90
7588;DHT22;3835;48.850;8.938;2024-03-02T15:41:35;12.50;99.90
7588;DHT22;3835;48.850;8.938;2024-03-02T15:44:02;12.50;99.90
7588;DHT22;3835;48.850;8.938;2024-03-02T15:46:29;12.40;99.90
7588;DHT22;3835;48.850;8.938;2024-03-02T15:48:56;12.40;99.90
7588;DHT22;3835;48.850;8.938;2024-03-02T15:51:23;12.30;99.90
7588;DHT22;3835;48.850;8.938;2024-03-02T15:53:50;12.40;99.90
7588;DHT22;3835;48.850;8.938;2024-03-02T15:56:17;12.30;99.90
7588;DHT22;3835;48.850;8.938;2024-03-02T15:58:45;12.40;99.90
7588;DHT22;3835;48.850;8.938;2024-03-02T16:01:12;12.50;99.90
7588;DHT22;3835;48.850;8.938;2024-03-02T16:03:39;12.40;99.90
7588;DHT22;3835;48.850;8.938;2024-03-02T16:06:06;12.50;99.90
7588;DHT22;3835;48.850;8.938;2024-03-02T16:08:33;12.50;99.90
7588;DHT22;3835;48.850;8.938;2024-03-02T16:11:00;12.40;99.90
7588;DHT22;3835;48.850;8.938;2024-03-02T16:13:28;12.50;99.90
7588;DHT22;3835;48.850;8.938;2024-03-02T16:15:57;12.60;99.90